Time;durP1;ratioP1;P1;durP2;ratioP2;P2;SDS_P1;SDS_P2;PMS_P1;PMS_P2;Temp;Humidity;BMP_temperature;BMP_pressure;BME280_temperature;BME280_humidity;BME280_pressure;Samples;Min_cycle;Max_cycle;Signal;HPM_P1;HPM_P2
2022/08/25 00:00:01;;;;;;;19.33;11.80;;;;;;;21.59;100.00;97370.47;5012703;28;20057;-81
2022/08/25 00:02:27;;;;;;;22.55;12.25;;;;;;;21.62;100.00;97376.38;5032326;28;20028;-81
2022/08/25 00:04:53;;;;;;;23.48;12.25;;;;;;;21.53;100.00;97374.66;5048547;28;20132;-81
2022/08/25 00:07:19;;;;;;;26.38;12.73;;;;;;;21.47;100.00;97377.25;5031456;28;20168;-81
2022/08/25 00:09:45;;;;;;;30.95;12.25;;;;;;;21.45;100.00;97382.84;5031718;28;20725;-81
2022/08/25 00:12:11;;;;;;;31.35;13.30;;;;;;;21.43;100.00;97378.59;5030117;28;20169;-81
2022/08/25 00:14:37;;;;;;;29.33;12.68;;;;;;;21.42;100.00;97376.88;5028680;28;20112;-81
2022/08/25 00:17:04;;;;;;;27.67;12.48;;;;;;;21.40;100.00;97381.63;5024253;28;20132;-81
2022/08/25 00:19:32;;;;;;;23.40;12.52;;;;;;;21.43;100.00;97387.59;5032666;28;20378;-83
2022/08/25 00:21:59;;;;;;;22.50;12.95;;;;;;;21.46;100.00;97383.69;5032642;28;20148;-82
2022/08/25 00:24:25;;;;;;;30.50;13.30;;;;;;;21.49;100.00;97380.63;5041151;28;20024;-82
2022/08/25 00:26:54;;;;;;;22.52;12.30;;;;;;;21.50;100.00;97371.47;5032715;28;20506;-82
2022/08/25 00:29:21;;;;;;;20.08;12.30;;;;;;;21.43;100.00;97370.41;5049254;28;20032;-82
2022/08/25 00:31:47;;;;;;;29.88;13.25;;;;;;;21.45;100.00;97376.53;5034506;28;20052;-81
2022/08/25 00:34:16;;;;;;;23.50;11.93;;;;;;;21.41;100.00;97370.56;5052904;28;20057;-82
2022/08/25 00:36:41;;;;;;;29.40;12.13;;;;;;;21.36;100.00;97356.63;5035944;28;20512;-82
2022/08/25 00:39:09;;;;;;;28.92;13.98;;;;;;;21.30;100.00;97356.44;5052867;28;20029;-82
2022/08/25 00:41:35;;;;;;;27.95;13.15;;;;;;;21.31;100.00;97369.03;5036169;28;20029;-82
2022/08/25 00:44:04;;;;;;;21.25;13.23;;;;;;;21.27;100.00;97354.03;5036194;28;20082;-82
2022/08/25 00:46:35;;;;;;;22.55;12.63;;;;;;;21.27;100.00;97346.72;5036320;28;20033;-82
2022/08/25 00:49:06;;;;;;;28.33;13.27;;;;;;;21.20;100.00;97358.44;5052425;28;20526;-82
2022/08/25 00:51:42;;;;;;;25.20;13.95;;;;;;;21.23;100.00;97360.81;5035570;28;20029;-81
2022/08/25 00:54:14;;;;;;;24.88;13.50;;;;;;;21.15;100.00;97368.97;5035693;28;20021;-82
2022/08/25 00:56:41;;;;;;;28.92;13.60;;;;;;;21.18;100.00;97368.63;5035694;28;20056;-81
2022/08/25 00:59:06;;;;;;;26.08;14.45;;;;;;;21.12;100.00;97355.69;5035586;28;20040;-82
2022/08/25 01:01:32;;;;;;;24.65;13.30;;;;;;;21.08;100.00;97356.03;5035998;28;20033;-82
2022/08/25 01:03:58;;;;;;;27.15;13.43;;;;;;;21.11;100.00;97364.88;5051902;28;20512;-81
2022/08/25 01:06:23;;;;;;;23.92;13.30;;;;;;;21.07;100.00;97362.44;5035530;28;20055;-82
2022/08/25 01:08:50;;;;;;;23.45;14.27;;;;;;;21.12;100.00;97352.97;5035340;28;20080;-82
2022/08/25 01:11:16;;;;;;;23.90;12.98;;;;;;;21.16;100.00;97365.25;5028721;28;20108;-82
2022/08/25 01:13:47;;;;;;;24.60;13.27;;;;;;;21.20;100.00;97361.16;5035156;28;20119;-81
2022/08/25 01:16:14;;;;;;;29.63;14.00;;;;;;;21.25;100.00;97353.38;5051946;28;20105;-81
2022/08/25 01:18:55;;;;;;;24.80;14.23;;;;;;;21.29;100.00;97354.72;5052178;28;20541;-81
2022/08/25 01:21:24;;;;;;;26.40;13.77;;;;;;;21.30;100.00;97354.56;5029057;28;20039;-81
2022/08/25 01:23:51;;;;;;;24.10;13.10;;;;;;;21.28;100.00;97355.75;5035237;28;20032;-80
2022/08/25 01:26:22;;;;;;;23.75;13.57;;;;;;;21.31;100.00;97352.69;5051822;28;20169;-80
2022/08/25 01:31:35;;;;;;;30.73;13.05;;;;;;;21.37;100.00;97360.19;5052009;28;20087;-80
2022/08/25 01:34:20;;;;;;;25.10;13.10;;;;;;;21.39;100.00;97366.31;5034990;28;20110;-80
2022/08/25 01:36:46;;;;;;;23.60;13.00;;;;;;;21.45;100.00;97362.94;5034851;28;20043;-80
2022/08/25 01:39:13;;;;;;;23.20;12.80;;;;;;;21.41;100.00;97353.41;5034859;28;20472;-82
2022/08/25 01:41:48;;;;;;;30.05;12.68;;;;;;;21.46;100.00;97348.31;5031699;28;20039;-82
2022/08/25 01:44:15;;;;;;;27.23;13.32;;;;;;;21.38;100.00;97340.13;5049760;28;20033;-82
2022/08/25 01:46:40;;;;;;;19.42;13.07;;;;;;;21.37;100.00;97350.16;5051641;28;20024;-81
2022/08/25 01:49:06;;;;;;;27.05;13.30;;;;;;;21.38;100.00;97351.03;5051216;28;20029;-82
2022/08/25 01:51:38;;;;;;;23.33;12.95;;;;;;;21.36;100.00;97347.59;5051367;28;20489;-82
2022/08/25 01:54:03;;;;;;;25.50;13.40;;;;;;;21.32;100.00;97346.25;5034418;28;20037;-80
2022/08/25 01:56:30;;;;;;;28.13;13.00;;;;;;;21.23;100.00;97345.34;5051220;28;20585;-80
2022/08/25 01:58:55;;;;;;;30.30;13.77;;;;;;;21.25;100.00;97342.47;5051208;28;20481;-80
2022/08/25 02:01:23;;;;;;;24.63;13.73;;;;;;;21.25;100.00;97342.47;5034460;28;20060;-81
2022/08/25 02:03:50;;;;;;;25.65;13.45;;;;;;;21.23;100.00;97334.47;5051231;28;20397;-81
2022/08/25 02:06:30;;;;;;;29.65;13.68;;;;;;;21.24;100.00;97329.88;5034111;28;20021;-81
2022/08/25 02:09:00;;;;;;;22.73;13.10;;;;;;;21.15;100.00;97330.88;5051986;28;20049;-81
2022/08/25 02:11:26;;;;;;;27.58;13.00;;;;;;;21.11;100.00;97324.06;5050819;28;20067;-81
2022/08/25 02:13:53;;;;;;;25.75;13.43;;;;;;;21.01;100.00;97319.59;5034290;28;20025;-81
2022/08/25 02:16:27;;;;;;;25.08;13.60;;;;;;;21.04;100.00;97332.03;5050695;28;20055;-81
2022/08/25 02:18:53;;;;;;;27.02;14.55;;;;;;;20.98;100.00;97328.06;5050782;28;20029;-82
2022/08/25 02:21:18;;;;;;;26.40;13.57;;;;;;;20.94;100.00;97323.16;5034001;28;20025;-81
2022/08/25 02:23:44;;;;;;;25.25;13.30;;;;;;;20.87;100.00;97317.50;5034167;28;20020;-81
2022/08/25 02:26:11;;;;;;;21.33;14.05;;;;;;;20.89;100.00;97328.19;5050386;28;20111;-81
2022/08/25 02:28:36;;;;;;;23.63;13.88;;;;;;;20.88;100.00;97321.94;5050852;28;20059;-82
2022/08/25 02:31:04;;;;;;;27.20;12.45;;;;;;;20.92;100.00;97317.84;5050331;28;20029;-81
2022/08/25 02:33:29;;;;;;;25.48;13.98;;;;;;;20.87;100.00;97322.09;5033797;28;20029;-81
2022/08/25 02:36:02;;;;;;;28.02;13.85;;;;;;;20.88;100.00;97318.38;5051752;28;20067;-82
2022/08/25 02:38:28;;;;;;;30.77;13.55;;;;;;;20.84;100.00;97316.97;5033722;28;20136;-81
2022/08/25 02:40:57;;;;;;;30.70;13.05;;;;;;;20.76;100.00;97317.81;5034059;28;20041;-82
2022/08/25 02:43:24;;;;;;;30.33;14.05;;;;;;;20.76;100.00;97325.13;5033666;28;20036;-82
2022/08/25 02:45:51;;;;;;;33.55;13.65;;;;;;;20.73;100.00;97320.88;5033960;28;20097;-82
2022/08/25 02:48:16;;;;;;;25.88;13.57;;;;;;;20.67;100.00;97326.97;5033372;28;20033;-81
2022/08/25 02:50:51;;;;;;;25.48;13.65;;;;;;;20.63;100.00;97324.72;5033544;28;20040;-82
2022/08/25 02:53:17;;;;;;;26.85;14.48;;;;;;;20.64;100.00;97329.97;5033501;28;20069;-82
2022/08/25 02:55:43;;;;;;;27.85;14.10;;;;;;;20.74;100.00;97327.13;5032741;28;20158;-81
2022/08/25 02:58:10;;;;;;;28.95;14.30;;;;;;;20.66;100.00;97330.69;5050505;28;20061;-82
2022/08/25 03:00:36;;;;;;;24.42;13.57;;;;;;;20.67;100.00;97332.41;5033255;28;20071;-82
2022/08/25 03:03:02;;;;;;;26.95;13.27;;;;;;;20.68;100.00;97334.06;5033457;28;20029;-82
2022/08/25 03:05:27;;;;;;;23.92;12.55;;;;;;;20.62;100.00;97323.84;5050167;28;20037;-81
2022/08/25 03:07:53;;;;;;;30.85;13.77;;;;;;;20.60;100.00;97325.91;5050228;28;20158;-81
2022/08/25 03:10:19;;;;;;;21.77;13.48;;;;;;;20.50;100.00;97319.72;5033242;28;20119;-81
2022/08/25 03:12:46;;;;;;;31.73;14.90;;;;;;;20.40;100.00;97329.84;5033422;28;20036;-81
2022/08/25 03:15:15;;;;;;;26.90;14.60;;;;;;;20.31;100.00;97325.38;5033510;28;20128;-81
2022/08/25 03:17:42;;;;;;;27.27;14.32;;;;;;;20.28;100.00;97325.69;5049807;28;20451;-81
2022/08/25 03:20:08;;;;;;;27.27;14.82;;;;;;;20.27;100.00;97327.56;5033698;28;20119;-81
2022/08/25 03:22:35;;;;;;;30.88;15.88;;;;;;;20.12;100.00;97331.03;5050038;28;20437;-81
2022/08/25 03:27:48;;;;;;;31.25;15.77;;;;;;;20.02;100.00;97336.56;5050582;28;20092;-81
2022/08/25 03:30:14;;;;;;;28.50;15.77;;;;;;;20.00;100.00;97339.41;5033385;28;20423;-81
2022/08/25 03:32:41;;;;;;;29.33;15.38;;;;;;;20.00;100.00;97339.41;5033120;28;20071;-81
2022/08/25 03:35:07;;;;;;;33.95;16.08;;;;;;;19.95;100.00;97339.03;5032918;28;20032;-81
2022/08/25 03:37:32;;;;;;;39.60;15.95;;;;;;;19.86;100.00;97337.28;5033348;28;20443;-82
2022/08/25 03:39:58;;;;;;;28.45;16.58;;;;;;;19.88;100.00;97339.81;5049838;28;20119;-81
2022/08/25 03:42:25;;;;;;;38.05;18.95;;;;;;;19.85;100.00;97329.28;5050507;28;20025;-82
2022/08/25 03:44:51;;;;;;;34.92;17.50;;;;;;;19.82;100.00;97325.00;5033197;28;20491;-81
2022/08/25 03:47:16;;;;;;;25.58;14.73;;;;;;;19.89;100.00;97330.66;5050165;28;20029;-80
2022/08/25 03:49:42;;;;;;;27.48;15.95;;;;;;;19.82;100.00;97327.72;5049568;28;20052;-81
2022/08/25 03:52:07;;;;;;;33.78;16.27;;;;;;;19.87;100.00;97327.28;5049362;28;20095;-81
2022/08/25 03:54:33;;;;;;;34.78;17.17;;;;;;;19.88;100.00;97331.66;5033143;28;20132;-81
2022/08/25 03:56:58;;;;;;;35.40;17.13;;;;;;;19.90;100.00;97340.53;5032585;28;20036;-82
2022/08/25 03:59:25;;;;;;;37.13;18.67;;;;;;;19.95;100.00;97349.91;5049640;28;20519;-82
2022/08/25 04:01:51;;;;;;;33.65;15.15;;;;;;;19.96;100.00;97342.63;5049883;28;20059;-82
2022/08/25 04:04:17;;;;;;;29.13;16.00;;;;;;;19.95;100.00;97330.91;5032874;28;20500;-83
2022/08/25 04:06:43;;;;;;;28.92;15.93;;;;;;;20.02;100.00;97337.41;5052429;28;20404;-83
2022/08/25 04:09:10;;;;;;;33.22;15.68;;;;;;;20.04;100.00;97329.09;5054143;28;20496;-83
2022/08/25 04:11:36;;;;;;;33.03;15.70;;;;;;;20.05;100.00;97319.94;5054556;28;20032;-83
2022/08/25 04:14:03;;;;;;;34.03;15.77;;;;;;;20.07;100.00;97325.19;5054399;28;20033;-82
2022/08/25 04:16:31;;;;;;;37.40;16.58;;;;;;;20.15;100.00;97320.66;5053365;28;20032;-83
2022/08/25 04:18:58;;;;;;;38.15;18.45;;;;;;;20.20;100.00;97315.63;5052707;28;20033;-82
2022/08/25 04:21:25;;;;;;;26.42;14.57;;;;;;;20.32;100.00;97316.22;5035887;28;20025;-82
2022/08/25 04:23:52;;;;;;;28.05;14.43;;;;;;;20.46;100.00;97318.34;5035941;28;20484;-86
2022/08/25 04:26:30;;;;;;;45.67;14.27;;;;;;;20.49;100.00;97315.28;5036874;28;20495;-88
2022/08/25 04:28:57;;;;;;;31.33;14.45;;;;;;;20.44;100.00;97312.22;5037148;28;20124;-84
2022/08/25 04:31:22;;;;;;;22.48;13.52;;;;;;;20.57;100.00;97309.06;5035906;28;20029;-83
2022/08/25 04:33:48;;;;;;;25.38;13.63;;;;;;;20.66;100.00;97313.50;5052901;28;20063;-83
2022/08/25 04:36:16;;;;;;;33.03;14.75;;;;;;;20.77;100.00;97321.38;5035682;28;20060;-82
2022/08/25 04:38:43;;;;;;;26.33;15.43;;;;;;;20.87;100.00;97328.38;5053121;28;20025;-82
2022/08/25 04:41:10;;;;;;;29.85;14.50;;;;;;;21.01;100.00;97341.34;5036335;28;20040;-82
2022/08/25 04:43:37;;;;;;;58.58;27.52;;;;;;;21.04;100.00;97330.13;5036580;28;20119;-82
2022/08/25 04:46:16;;;;;;;32.13;14.02;;;;;;;21.22;100.00;97342.81;5037020;28;20036;-82
2022/08/25 04:48:42;;;;;;;32.90;15.40;;;;;;;21.22;100.00;97331.94;5053425;28;20016;-82
2022/08/25 04:51:10;;;;;;;37.92;15.20;;;;;;;21.46;100.00;97341.00;5052622;28;20021;-81
2022/08/25 04:53:36;;;;;;;27.65;13.52;;;;;;;21.49;100.00;97337.94;5036511;28;20040;-83
2022/08/25 04:56:06;;;;;;;33.10;14.98;;;;;;;21.47;100.00;97325.53;5036654;28;20560;-84
2022/08/25 04:58:32;;;;;;;28.23;13.73;;;;;;;21.70;100.00;97329.28;5035612;28;20036;-82
2022/08/25 05:01:05;;;;;;;26.23;13.63;;;;;;;21.87;100.00;97325.53;5052365;28;20066;-82
2022/08/25 05:03:31;;;;;;;26.33;13.27;;;;;;;21.95;100.00;97313.81;5053948;28;20063;-83
2022/08/25 05:05:57;;;;;;;29.70;13.45;;;;;;;22.03;100.00;97317.38;5036035;28;20021;-83
2022/08/25 05:08:23;;;;;;;20.30;12.52;;;;;;;22.16;100.00;97314.13;5035296;28;20032;-82
2022/08/25 05:10:49;;;;;;;25.73;12.68;;;;;;;22.28;100.00;97311.88;5035646;28;20039;-83
2022/08/25 05:13:15;;;;;;;23.67;12.95;;;;;;;22.41;100.00;97317.66;5035518;28;20029;-84
2022/08/25 05:15:49;;;;;;;38.60;22.23;;;;;;;22.54;100.00;97309.78;5051993;28;20029;-84
2022/08/25 05:18:16;;;;;;;33.05;20.10;;;;;;;22.82;100.00;97316.53;5050641;28;20112;-83
2022/08/25 05:20:42;;;;;;;27.27;11.98;;;;;;;22.97;100.00;97306.59;5035076;28;20087;-85
2022/08/25 05:23:07;;;;;;;36.22;20.42;;;;;;;23.12;100.00;97302.06;5035270;28;20230;-85
2022/08/25 05:25:33;;;;;;;43.38;20.42;;;;;;;23.35;100.00;97279.41;5051961;28;20029;-83
2022/08/25 05:27:58;;;;;;;31.98;15.48;;;;;;;23.62;100.00;97281.63;5051706;28;20477;-83
2022/08/25 05:30:24;;;;;;;27.65;12.20;;;;;;;23.70;100.00;97287.00;5035413;28;20017;-82
2022/08/25 05:32:50;;;;;;;33.30;18.30;;;;;;;24.11;100.00;97274.72;5051718;28;20025;-83
2022/08/25 05:35:19;;;;;;;34.53;15.10;;;;;;;24.24;100.00;97263.97;5035307;28;20447;-82
2022/08/25 05:37:45;;;;;;;28.92;15.50;;;;;;;24.60;100.00;97265.97;5052380;28;20025;-82
2022/08/25 05:40:11;;;;;;;29.02;13.65;;;;;;;24.87;100.00;97273.53;5035149;28;20191;-83
2022/08/25 05:42:36;;;;;;;31.75;12.50;;;;;;;25.77;100.00;97268.47;5035189;28;20111;-82
2022/08/25 05:45:04;;;;;;;33.38;12.13;;;;;;;26.10;100.00;97269.59;5035228;28;20094;-83
2022/08/25 05:47:29;;;;;;;25.70;10.65;;;;;;;26.82;100.00;97286.59;5034554;28;20033;-84
2022/08/25 05:49:55;;;;;;;22.38;10.10;;;;;;;27.61;91.81;97278.69;5052697;28;20051;-83
2022/08/25 05:52:21;;;;;;;26.67;10.70;;;;;;;28.18;86.99;97280.88;5034601;28;20033;-83
2022/08/25 05:55:14;;;;;;;16.02;9.38;;;;;;;28.11;84.58;97247.03;5035149;28;20472;-83
2022/08/25 05:57:41;;;;;;;28.83;10.30;;;;;;;28.79;82.14;97281.47;5050427;28;20131;-84
2022/08/25 06:00:08;;;;;;;18.35;11.25;;;;;;;28.50;81.29;97277.25;5051730;28;20513;-82
2022/08/25 06:02:44;;;;;;;26.30;11.32;;;;;;;27.71;84.75;97270.88;5050898;28;20036;-84
2022/08/25 06:05:19;;;;;;;22.70;10.38;;;;;;;27.19;88.14;97271.56;5036123;28;20528;-84
2022/08/25 06:07:45;;;;;;;24.95;10.18;;;;;;;28.33;82.96;97258.66;5051265;28;20066;-83
2022/08/25 06:10:12;;;;;;;18.25;9.82;;;;;;;29.70;77.06;97270.25;5034197;28;20141;-82
2022/08/25 06:12:39;;;;;;;20.95;13.15;;;;;;;29.83;74.58;97275.72;5050708;28;20496;-83
2022/08/25 06:15:05;;;;;;;23.05;9.98;;;;;;;29.86;73.56;97269.75;5051150;28;20029;-84
2022/08/25 06:17:33;;;;;;;18.70;9.35;;;;;;;29.95;72.21;97266.50;5034201;28;20475;-83
2022/08/25 06:19:59;;;;;;;23.90;9.43;;;;;;;30.18;71.26;97259.53;5051205;28;20032;-82
2022/08/25 06:22:25;;;;;;;24.48;14.65;;;;;;;30.44;69.79;97262.09;5050647;28;20021;-83
2022/08/25 06:24:50;;;;;;;33.03;17.35;;;;;;;30.46;69.83;97262.69;5051399;28;20025;-83
2022/08/25 06:27:16;;;;;;;24.33;8.63;;;;;;;30.26;69.62;97259.25;5050408;28;20021;-83
2022/08/25 06:30:11;;;;;;;18.80;8.85;;;;;;;29.59;71.30;97249.75;5033321;28;20031;-83
2022/08/25 06:32:38;;;;;;;22.35;8.60;;;;;;;29.05;73.42;97253.81;5033505;28;20027;-84
2022/08/25 06:35:06;;;;;;;17.02;8.05;;;;;;;28.24;76.54;97260.75;5033782;28;20559;-84
2022/08/25 06:37:34;;;;;;;18.00;7.93;;;;;;;27.89;78.25;97256.50;5033294;28;20028;-81
2022/08/25 06:40:00;;;;;;;17.02;9.27;;;;;;;27.43;81.90;97261.94;5033868;28;20027;-83
2022/08/25 06:42:26;;;;;;;17.40;8.52;;;;;;;27.41;82.92;97262.09;5050317;28;20017;-83
2022/08/25 06:44:51;;;;;;;13.98;7.82;;;;;;;27.61;82.06;97258.59;5033655;28;20041;-83
2022/08/25 06:47:17;;;;;;;17.70;9.02;;;;;;;27.59;81.41;97264.31;5033572;28;20543;-83
2022/08/25 06:49:43;;;;;;;25.30;7.93;;;;;;;27.76;80.27;97262.84;5050272;28;20503;-83
2022/08/25 06:52:09;;;;;;;17.65;8.82;;;;;;;27.49;81.51;97260.25;5049957;28;20041;-83
2022/08/25 06:54:35;;;;;;;21.00;7.78;;;;;;;27.52;81.15;97265.34;5050129;28;20029;-83
2022/08/25 06:57:01;;;;;;;18.17;8.25;;;;;;;27.67;80.84;97255.00;5033843;28;20029;-83
2022/08/25 06:59:27;;;;;;;21.05;8.13;;;;;;;27.67;81.31;97257.75;5033273;28;20079;-83
2022/08/25 07:01:52;;;;;;;19.00;7.40;;;;;;;27.27;81.34;97257.63;5050108;28;20036;-83
2022/08/25 07:04:18;;;;;;;25.13;7.22;;;;;;;27.44;80.95;97260.88;5050493;28;20039;-84
2022/08/25 07:06:44;;;;;;;14.43;7.40;;;;;;;27.82;79.61;97264.75;5033460;28;20052;-83
2022/08/25 07:09:11;;;;;;;15.95;7.63;;;;;;;28.46;76.49;97258.63;5032906;28;20045;-84
2022/08/25 07:11:38;;;;;;;21.83;8.32;;;;;;;28.29;76.27;97255.47;5032807;28;20654;-84
2022/08/25 07:14:05;;;;;;;19.92;8.27;;;;;;;28.90;74.08;97255.16;5049927;28;20039;-84
2022/08/25 07:16:32;;;;;;;19.48;8.20;;;;;;;29.93;70.19;97254.00;5033447;28;20035;-84
2022/08/25 07:18:58;;;;;;;15.02;7.82;;;;;;;30.74;65.91;97260.28;5049822;28;20447;-84
2022/08/25 07:21:25;;;;;;;15.80;7.20;;;;;;;30.34;66.82;97257.03;5033540;28;20017;-84
2022/08/25 07:23:51;;;;;;;16.98;7.53;;;;;;;30.41;66.98;97245.97;5032819;28;20167;-84
2022/08/25 07:26:20;;;;;;;12.70;7.35;;;;;;;30.44;65.74;97248.28;5033630;28;20537;-84
2022/08/25 07:28:46;;;;;;;18.05;6.00;;;;;;;31.71;60.05;97236.34;5033227;28;20021;-84
2022/08/25 07:31:12;;;;;;;30.05;7.47;;;;;;;32.16;57.47;97223.72;5033176;28;20044;-83
2022/08/25 07:35:13;;;;;;;25.85;5.15;;;;;;;31.71;57.46;97230.81;5033337;28;20016;-82
2022/08/25 07:36:24;;;;;;;14.65;5.57;;;;;;;33.31;54.23;97223.88;5049756;28;20079;-82
2022/08/25 07:38:50;;;;;;;20.27;5.43;;;;;;;33.69;51.05;97193.56;5033076;28;20056;-82
2022/08/25 07:41:16;;;;;;;13.90;4.95;;;;;;;33.98;50.52;97203.53;5051190;28;20064;-81
2022/08/25 07:43:41;;;;;;;18.00;5.00;;;;;;;34.43;48.84;97199.84;5037144;28;20020;-84
2022/08/25 07:46:07;;;;;;;20.60;5.18;;;;;;;33.71;50.40;97195.03;5037210;28;20033;-82
2022/08/25 07:48:33;;;;;;;20.63;6.28;;;;;;;33.22;50.78;97204.84;5037412;28;20029;-83
2022/08/25 07:50:58;;;;;;;26.65;5.22;;;;;;;34.94;47.47;97207.84;5036900;28;20068;-83
2022/08/25 07:53:24;;;;;;;26.42;5.95;;;;;;;36.27;44.30;97203.53;5037003;28;20055;-83
2022/08/25 07:55:49;;;;;;;17.23;5.47;;;;;;;36.04;42.66;97195.50;5053805;28;20501;-82
2022/08/25 07:58:15;;;;;;;14.48;5.05;;;;;;;33.35;48.44;97200.94;5037383;28;20025;-83
2022/08/25 08:00:41;;;;;;;13.48;4.97;;;;;;;33.73;48.29;97203.09;5037597;28;20040;-83
2022/08/25 08:03:08;;;;;;;16.48;8.43;;;;;;;34.36;47.50;97211.16;5054085;28;20512;-84
2022/08/25 08:05:35;;;;;;;18.42;5.43;;;;;;;35.43;44.91;97203.22;5054972;28;20052;-83
2022/08/25 08:08:01;;;;;;;23.38;6.53;;;;;;;36.34;42.59;97199.41;5054434;28;20038;-83
2022/08/25 08:10:27;;;;;;;27.40;5.10;;;;;;;36.58;42.54;97196.28;5038205;28;20549;-83
2022/08/25 08:12:53;;;;;;;22.95;6.60;;;;;;;37.09;41.49;97194.63;5038118;28;20112;-83
2022/08/25 08:15:19;;;;;;;23.33;5.72;;;;;;;37.55;40.36;97185.31;5054121;28;20116;-83
2022/08/25 08:17:45;;;;;;;22.25;5.35;;;;;;;37.84;38.89;97172.50;5054500;28;20029;-83
2022/08/25 08:20:11;;;;;;;19.65;5.13;;;;;;;37.70;38.97;97171.38;5054220;28;20037;-83
2022/08/25 08:22:39;;;;;;;20.60;5.82;;;;;;;36.80;39.82;97172.69;5038047;28;20021;-82
2022/08/25 08:25:06;;;;;;;18.05;5.00;;;;;;;36.46;41.62;97176.91;5037424;28;20033;-83
2022/08/25 08:27:32;;;;;;;24.38;5.38;;;;;;;36.87;39.90;97178.88;5037123;28;20029;-84
2022/08/25 08:29:57;;;;;;;23.42;4.70;;;;;;;36.30;39.97;97167.59;5053964;28;20028;-84
2022/08/25 08:32:23;;;;;;;26.98;5.18;;;;;;;35.74;40.37;97166.28;5053912;28;20086;-84
2022/08/25 08:34:49;;;;;;;32.30;4.38;;;;;;;36.00;37.51;97149.75;5054065;28;20413;-84
2022/08/25 08:37:15;;;;;;;27.58;4.95;;;;;;;35.79;37.67;97155.16;5037315;28;20040;-83
2022/08/25 08:39:40;;;;;;;27.83;5.25;;;;;;;37.54;35.46;97152.06;5037217;28;20025;-83
2022/08/25 08:42:22;;;;;;;23.67;4.55;;;;;;;36.81;35.69;97146.47;5036647;28;20170;-83
2022/08/25 08:44:51;;;;;;;23.95;3.72;;;;;;;35.59;37.60;97151.34;5037217;28;20189;-84
2022/08/25 08:47:35;;;;;;;17.95;4.68;;;;;;;36.19;37.12;97153.84;5054814;28;20029;-84
2022/08/25 08:50:09;;;;;;;30.40;4.50;;;;;;;35.72;38.12;97143.41;5054470;28;20408;-83
2022/08/25 08:52:52;;;;;;;20.48;5.35;;;;;;;35.64;38.43;97145.84;5053534;28;20025;-84
2022/08/25 08:55:26;;;;;;;25.67;5.47;;;;;;;36.49;37.53;97147.63;5036524;28;20021;-83
2022/08/25 08:57:54;;;;;;;27.13;8.32;;;;;;;35.44;38.37;97140.03;5055123;28;20028;-85
2022/08/25 09:00:20;;;;;;;30.38;7.43;;;;;;;36.27;37.93;97156.16;5036479;28;20033;-84
2022/08/25 09:03:23;;;;;;;21.77;4.60;;;;;;;37.47;35.86;97125.25;5036368;28;20086;-85
2022/08/25 09:05:52;;;;;;;22.83;4.15;;;;;;;38.59;34.62;97140.09;5020439;28;20516;-84
2022/08/25 09:08:17;;;;;;;27.15;4.13;;;;;;;37.34;35.96;97128.56;5036407;28;20025;-83
2022/08/25 09:11:24;;;;;;;26.27;5.32;;;;;;;34.90;39.46;97133.53;5037106;28;20511;-83
2022/08/25 09:13:52;;;;;;;24.52;4.50;;;;;;;35.09;40.29;97154.38;5053342;28;20079;-83
2022/08/25 09:16:54;;;;;;;27.52;5.25;;;;;;;36.56;37.54;97137.97;5052776;28;20025;-83
2022/08/25 09:19:22;;;;;;;;;;;;;;;36.59;37.83;97137.44;5053581;28;20024;-83
2022/08/25 09:22:03;;;;;;;26.00;4.65;;;;;;;34.24;41.17;97129.84;5053340;28;19920;-83
2022/08/25 09:24:40;;;;;;;19.67;4.03;;;;;;;33.50;42.58;97137.41;5053100;28;20021;-83
2022/08/25 09:27:11;;;;;;;32.83;5.50;;;;;;;33.26;43.80;97141.41;5037000;28;20128;-84
2022/08/25 09:29:49;;;;;;;;;;;;;;;34.70;41.15;97151.63;5053858;28;20464;-84
2022/08/25 09:32:15;;;;;;;33.35;8.68;;;;;;;36.91;37.70;97140.94;5054002;28;19924;-83
2022/08/25 09:34:41;;;;;;;27.35;5.07;;;;;;;37.98;36.08;97123.41;5036725;28;20120;-84
2022/08/25 09:37:07;;;;;;;27.92;4.93;;;;;;;39.44;34.10;97122.16;5053068;28;20071;-84
2022/08/25 09:39:32;;;;;;;29.30;4.38;;;;;;;40.82;32.09;97114.28;5052200;28;20407;-83
2022/08/25 09:41:59;;;;;;;35.35;5.20;;;;;;;41.77;30.65;97114.16;5052879;28;20265;-83
2022/08/25 09:44:44;;;;;;;15.98;4.30;;;;;;;42.04;29.88;97100.22;5036185;28;20029;-84
2022/08/25 09:47:26;;;;;;;32.47;8.27;;;;;;;42.89;29.14;97091.31;5036113;28;20471;-84
2022/08/25 09:50:03;;;;;;;19.67;4.63;;;;;;;42.43;28.98;97097.84;5052737;28;20377;-83
2022/08/25 09:52:34;;;;;;;46.85;17.73;;;;;;;40.63;30.62;97083.34;5036795;28;20393;-83
2022/08/25 09:55:14;;;;;;;23.40;4.68;;;;;;;40.90;30.18;97080.78;5052963;28;20037;-83
2022/08/25 09:57:45;;;;;;;40.80;9.43;;;;;;;39.71;31.52;97079.72;5053002;28;20143;-84
2022/08/25 10:00:21;;;;;;;32.00;6.07;;;;;;;39.64;32.25;97083.94;5036044;28;20900;-83
2022/08/25 10:03:07;;;;;;;26.98;4.28;;;;;;;39.70;31.49;97083.63;5036904;28;20028;-85
2022/08/25 10:05:36;;;;;;;20.10;4.28;;;;;;;40.97;30.17;97086.91;5054220;28;20025;-83
2022/08/25 10:08:10;;;;;;;23.35;5.32;;;;;;;39.71;31.44;97062.91;5038056;28;20444;-83
2022/08/25 10:10:42;;;;;;;27.13;5.95;;;;;;;39.32;31.80;97076.03;5054209;28;20033;-85
2022/08/25 10:13:15;;;;;;;25.17;4.05;;;;;;;40.22;30.52;97079.28;5036705;28;20083;-83
2022/08/25 10:15:40;;;;;;;17.70;4.35;;;;;;;39.13;32.18;97047.88;5052934;28;20055;-84
2022/08/25 10:18:27;;;;;;;24.15;4.47;;;;;;;36.85;35.29;97069.53;5053053;28;20017;-83
2022/08/25 10:21:13;;;;;;;26.83;4.78;;;;;;;35.46;37.35;97066.31;5036155;28;20060;-83
2022/08/25 10:23:48;;;;;;;18.58;3.65;;;;;;;35.31;37.51;97071.75;5036745;28;20535;-84
2022/08/25 10:26:51;;;;;;;17.60;4.47;;;;;;;35.54;37.48;97065.81;5036246;28;20067;-84
2022/08/25 10:29:27;;;;;;;27.58;4.55;;;;;;;36.43;36.24;97077.09;5053891;28;20024;-84
2022/08/25 10:31:55;;;;;;;25.67;4.57;;;;;;;37.73;34.20;97069.44;5035614;28;20064;-84
2022/08/25 10:34:46;;;;;;;16.45;4.20;;;;;;;38.51;32.32;97054.00;5035780;28;20039;-84
2022/08/25 10:37:15;;;;;;;19.58;4.95;;;;;;;38.88;32.17;97060.03;5053665;28;20029;-84
2022/08/25 10:39:43;;;;;;;22.00;4.70;;;;;;;37.07;34.46;97044.19;5035339;28;20044;-84
2022/08/25 10:42:08;;;;;;;25.88;5.25;;;;;;;36.27;35.55;97048.28;5052342;28;20025;-83
2022/08/25 10:47:49;;;;;;;28.80;4.53;;;;;;;34.95;37.42;97042.66;5053599;28;20440;-85
2022/08/25 10:50:29;;;;;;;14.43;4.20;;;;;;;34.55;38.28;97054.13;5052261;28;20405;-84
2022/08/25 10:53:10;;;;;;;14.85;4.07;;;;;;;34.52;37.54;97040.75;5052404;28;20036;-84
2022/08/25 10:55:54;;;;;;;13.05;4.57;;;;;;;33.90;38.29;97054.00;5053322;28;20083;-83
2022/08/25 10:58:47;;;;;;;13.20;3.97;;;;;;;33.42;39.96;97057.38;5051383;28;20027;-84
2022/08/25 11:01:33;;;;;;;13.15;3.95;;;;;;;33.37;40.11;97045.34;5053207;28;20503;-83
2022/08/25 11:04:07;;;;;;;14.23;4.07;;;;;;;33.18;40.23;97047.53;5035097;28;20052;-84
2022/08/25 11:06:59;;;;;;;23.45;4.47;;;;;;;32.81;40.57;97057.31;5051724;28;20408;-83
2022/08/25 11:09:32;;;;;;;17.58;3.97;;;;;;;33.70;39.62;97056.47;5049937;28;20128;-85
2022/08/25 11:12:29;;;;;;;23.05;3.58;;;;;;;34.80;38.17;97048.91;5051404;28;20028;-85
2022/08/25 11:15:27;;;;;;;23.00;4.50;;;;;;;35.76;36.30;97047.09;5050782;28;20116;-85
2022/08/25 11:18:02;;;;;;;18.65;4.32;;;;;;;35.74;36.56;97040.97;5034321;28;20076;-84
2022/08/25 11:20:36;;;;;;;13.40;3.67;;;;;;;35.90;35.90;97037.16;5033281;28;20029;-84
2022/08/25 11:23:16;;;;;;;19.15;3.67;;;;;;;35.96;35.74;97040.00;5050047;28;20029;-84
2022/08/25 11:25:49;;;;;;;15.38;3.72;;;;;;;37.97;33.50;97051.84;5050072;28;20099;-84
2022/08/25 11:28:29;;;;;;;23.35;4.15;;;;;;;39.51;30.93;97024.66;5034055;28;20057;-83
2022/08/25 11:30:56;;;;;;;9.60;3.53;;;;;;;40.43;29.55;97022.66;5051613;28;20025;-84
2022/08/25 11:33:23;;;;;;;14.68;3.50;;;;;;;39.25;31.36;97003.59;5034897;28;20048;-83
2022/08/25 11:35:58;;;;;;;18.40;7.55;;;;;;;37.30;33.44;96998.19;5034814;28;20032;-82